createdAt,value
2023-11-24T00:01:49.080Z,6.27
2023-11-24T00:04:35.094Z,5.21
2023-11-24T00:07:02.117Z,5.01
2023-11-24T00:09:30.420Z,5.15
2023-11-24T00:11:57.340Z,5.59
2023-11-24T00:14:24.129Z,4.72
2023-11-24T00:16:52.948Z,4.86
2023-11-24T00:19:19.911Z,5.17
2023-11-24T00:21:48.083Z,5.91
2023-11-24T00:24:14.851Z,6.20
2023-11-24T00:26:41.602Z,6.32
2023-11-24T00:29:08.440Z,6.40
2023-11-24T00:31:35.256Z,6.06
2023-11-24T00:34:02.228Z,6.29
2023-11-24T00:36:29.080Z,5.78
2023-11-24T00:38:56.220Z,5.92
2023-11-24T00:41:22.987Z,5.98
2023-11-24T00:43:51.242Z,5.91
2023-11-24T00:46:18.175Z,5.41
2023-11-24T00:48:45.458Z,6.13
2023-11-24T00:51:12.317Z,6.09
2023-11-24T00:53:39.480Z,5.37
2023-11-24T00:56:07.914Z,5.84
2023-11-24T00:58:34.736Z,5.86
2023-11-24T01:01:01.636Z,6.39
2023-11-24T01:03:31.265Z,6.64
2023-11-24T01:05:58.718Z,5.78
2023-11-24T01:08:43.653Z,5.46
2023-11-24T01:11:13.200Z,4.46
2023-11-24T01:13:40.362Z,4.35
2023-11-24T01:20:00.303Z,4.01
2023-11-24T01:22:27.184Z,3.95
2023-11-24T01:25:12.635Z,3.52
2023-11-24T01:27:39.642Z,3.32
2023-11-24T01:30:09.611Z,3.19
2023-11-24T01:32:37.623Z,3.04
2023-11-24T01:35:22.616Z,3.00
2023-11-24T01:37:50.810Z,2.84
2023-11-24T01:40:36.654Z,2.90
2023-11-24T01:43:03.955Z,3.58
2023-11-24T01:45:31.648Z,3.57
2023-11-24T01:47:58.748Z,4.14
2023-11-24T01:50:25.810Z,4.41
2023-11-24T01:56:58.058Z,3.68
2023-11-24T01:59:24.804Z,3.05
2023-11-24T02:01:54.783Z,3.76
2023-11-24T02:04:25.504Z,3.33
2023-11-24T02:06:53.320Z,3.08
2023-11-24T02:09:21.407Z,3.54
2023-11-24T02:11:50.957Z,3.73
2023-11-24T02:14:19.002Z,3.64
2023-11-24T02:16:46.189Z,3.88
2023-11-24T02:19:15.333Z,4.47
2023-11-24T02:21:42.535Z,4.44
2023-11-24T02:24:09.381Z,4.95
2023-11-24T02:26:38.996Z,5.36
2023-11-24T02:29:06.911Z,5.75
2023-11-24T02:31:34.198Z,5.84
2023-11-24T02:34:01.132Z,4.27
2023-11-24T02:36:28.487Z,4.75
2023-11-24T02:38:55.288Z,5.41
2023-11-24T02:41:34.159Z,4.50
2023-11-24T02:44:01.234Z,5.40
2023-11-24T02:50:13.568Z,3.21
2023-11-24T02:52:41.311Z,3.23
2023-11-24T02:55:23.334Z,2.83
2023-11-24T02:57:59.637Z,3.14
2023-11-24T03:00:26.532Z,3.40
2023-11-24T03:02:54.862Z,3.64
2023-11-24T03:05:21.974Z,3.04
2023-11-24T03:07:51.523Z,3.52
2023-11-24T03:10:18.328Z,4.05
2023-11-24T03:12:45.923Z,4.67
2023-11-24T03:15:31.476Z,5.20
2023-11-24T03:21:32.490Z,4.87
2023-11-24T03:23:59.338Z,5.56
2023-11-24T03:26:28.989Z,5.81
2023-11-24T03:28:55.895Z,4.01
2023-11-24T03:31:22.629Z,3.36
2023-11-24T03:33:49.895Z,3.42
2023-11-24T03:36:17.709Z,4.26
2023-11-24T03:38:44.449Z,4.06
2023-11-24T03:41:11.252Z,4.48
2023-11-24T03:43:39.620Z,5.23
2023-11-24T03:46:07.282Z,5.72
2023-11-24T03:48:34.356Z,5.94
2023-11-24T03:51:01.495Z,5.65
2023-11-24T03:53:28.538Z,5.30
2023-11-24T03:56:17.915Z,4.91
2023-11-24T03:58:45.077Z,4.32
2023-11-24T04:01:14.963Z,3.93
2023-11-24T04:03:50.918Z,3.45
2023-11-24T04:06:17.702Z,3.33
2023-11-24T04:08:44.520Z,3.19
2023-11-24T04:11:12.431Z,2.80
2023-11-24T04:13:59.325Z,2.99
2023-11-24T04:16:26.452Z,3.21
2023-11-24T04:18:53.683Z,3.51
2023-11-24T04:21:23.473Z,3.66
2023-11-24T04:23:59.785Z,3.75
2023-11-24T04:26:37.128Z,4.26
2023-11-24T04:29:04.016Z,4.82
2023-11-24T04:31:31.063Z,5.15
2023-11-24T04:34:00.947Z,5.45
2023-11-24T04:36:34.060Z,5.63
2023-11-24T04:39:12.360Z,5.16
2023-11-24T04:41:39.171Z,3.97
2023-11-24T04:44:07.132Z,3.06
2023-11-24T04:46:34.473Z,2.87
2023-11-24T04:49:02.542Z,3.38
2023-11-24T04:51:29.809Z,4.10
2023-11-24T04:54:15.911Z,3.80
2023-11-24T04:57:01.952Z,3.83
2023-11-24T04:59:28.971Z,3.52
2023-11-24T05:02:14.637Z,4.13
2023-11-24T05:04:41.685Z,4.60
2023-11-24T05:07:08.597Z,4.75
2023-11-24T05:09:35.428Z,4.64
2023-11-24T05:12:20.870Z,3.88
2023-11-24T05:14:47.851Z,3.81
2023-11-24T05:17:19.505Z,4.82
2023-11-24T05:19:46.492Z,5.16
2023-11-24T05:22:13.824Z,4.18
2023-11-24T05:25:07.677Z,4.35
2023-11-24T05:27:34.822Z,4.58
2023-11-24T05:30:02.561Z,4.52
2023-11-24T05:33:07.426Z,5.05
2023-11-24T05:35:34.410Z,5.22
2023-11-24T05:38:01.417Z,5.29
2023-11-24T05:41:09.998Z,5.33
2023-11-24T05:43:36.821Z,4.33
2023-11-24T05:46:03.668Z,3.81
2023-11-24T05:48:30.693Z,3.69
2023-11-24T05:50:57.598Z,3.59
2023-11-24T05:53:24.487Z,3.72
2023-11-24T05:55:51.606Z,3.82
2023-11-24T05:58:18.431Z,4.64
2023-11-24T06:00:45.501Z,5.11
2023-11-24T06:03:12.366Z,5.47
2023-11-24T06:05:40.185Z,5.82
2023-11-24T06:08:07.087Z,6.06
2023-11-24T06:10:37.049Z,5.41
2023-11-24T06:13:04.302Z,5.07
2023-11-24T06:15:31.873Z,5.73
2023-11-24T06:17:59.064Z,5.96
2023-11-24T06:20:25.874Z,6.03
2023-11-24T06:22:52.691Z,6.35
2023-11-24T06:25:19.582Z,6.05
2023-11-24T06:27:46.571Z,6.53
2023-11-24T06:30:14.126Z,6.55
2023-11-24T06:32:41.037Z,6.70
2023-11-24T06:35:20.735Z,6.84
2023-11-24T06:37:47.899Z,6.84
2023-11-24T06:40:56.510Z,6.62
2023-11-24T06:43:42.184Z,4.68
2023-11-24T06:46:09.321Z,5.60
2023-11-24T06:48:36.690Z,5.81
2023-11-24T06:51:05.194Z,5.85
2023-11-24T06:53:32.441Z,4.21
2023-11-24T06:55:59.656Z,5.16
2023-11-24T06:58:26.650Z,5.50
2023-11-24T07:00:53.616Z,5.29
2023-11-24T07:03:21.058Z,4.66
2023-11-24T07:05:48.283Z,4.39
2023-11-24T07:08:15.505Z,4.69
2023-11-24T07:10:43.367Z,5.20
2023-11-24T07:13:10.290Z,5.42
2023-11-24T07:15:37.194Z,5.44
2023-11-24T07:18:05.112Z,5.77
2023-11-24T07:20:32.143Z,5.59
2023-11-24T07:23:19.060Z,5.36
2023-11-24T07:25:47.741Z,5.36
2023-11-24T07:28:14.658Z,5.59
2023-11-24T07:30:42.570Z,6.03
2023-11-24T07:33:12.076Z,5.97
2023-11-24T07:35:39.362Z,5.92
2023-11-24T07:38:06.844Z,6.01
2023-11-24T07:40:33.621Z,5.64
2023-11-24T07:43:00.476Z,5.79
2023-11-24T07:45:28.529Z,5.56
2023-11-24T07:47:55.667Z,5.22
2023-11-24T07:50:22.769Z,5.13
2023-11-24T07:52:49.678Z,4.83
2023-11-24T07:55:16.565Z,5.01
2023-11-24T07:57:43.516Z,5.65
2023-11-24T08:00:11.053Z,4.73
2023-11-24T08:02:38.078Z,4.24
2023-11-24T08:05:05.933Z,3.49
2023-11-24T08:07:32.735Z,3.32
2023-11-24T08:09:59.957Z,3.23
2023-11-24T08:12:27.061Z,4.14
2023-11-24T08:14:53.951Z,4.43
2023-11-24T08:17:20.764Z,4.82
2023-11-24T08:19:47.621Z,5.47
2023-11-24T08:22:14.700Z,5.82
2023-11-24T08:28:28.276Z,5.04
2023-11-24T08:30:55.408Z,4.53
2023-11-24T08:33:22.971Z,5.35
2023-11-24T08:35:50.444Z,5.49
2023-11-24T08:38:19.368Z,5.01
2023-11-24T08:40:46.955Z,5.09
2023-11-24T08:43:13.782Z,5.45
2023-11-24T08:45:41.042Z,5.63
2023-11-24T08:48:08.954Z,5.29
2023-11-24T08:54:19.527Z,5.86
2023-11-24T08:56:46.821Z,6.04
2023-11-24T08:59:14.164Z,6.41
2023-11-24T09:01:42.317Z,6.52
2023-11-24T09:04:09.523Z,6.16
2023-11-24T09:06:36.405Z,6.43
2023-11-24T09:09:03.981Z,6.73
2023-11-24T09:11:30.900Z,6.15
2023-11-24T09:13:59.107Z,6.25
2023-11-24T09:16:26.144Z,5.66
2023-11-24T09:18:54.240Z,6.12
2023-11-24T09:21:21.093Z,5.92
2023-11-24T09:23:48.267Z,6.52
2023-11-24T09:26:15.505Z,7.11
2023-11-24T09:28:42.297Z,7.58
2023-11-24T09:31:09.165Z,7.47
2023-11-24T09:33:39.444Z,7.69
2023-11-24T09:36:06.791Z,7.29
2023-11-24T09:41:18.308Z,7.43
2023-11-24T09:43:45.356Z,7.78
2023-11-24T09:46:12.674Z,7.72
2023-11-24T09:48:42.764Z,7.87
2023-11-24T09:51:09.546Z,7.48
2023-11-24T09:53:36.353Z,7.28
2023-11-24T09:56:06.432Z,7.04
2023-11-24T09:58:33.304Z,7.89
2023-11-24T10:01:08.265Z,7.52
2023-11-24T10:03:39.074Z,7.19
2023-11-24T10:10:04.575Z,8.20
2023-11-24T10:12:31.386Z,8.08
2023-11-24T10:14:58.220Z,8.31
2023-11-24T10:17:25.079Z,8.73
2023-11-24T10:19:55.331Z,8.47
2023-11-24T10:22:27.715Z,8.71
2023-11-24T10:24:54.548Z,9.16
2023-11-24T10:27:22.999Z,8.68
2023-11-24T10:29:50.100Z,8.37
2023-11-24T10:32:17.226Z,8.86
2023-11-24T10:34:44.872Z,8.92
2023-11-24T10:37:20.666Z,9.23
2023-11-24T10:39:48.379Z,8.70
2023-11-24T10:42:15.716Z,8.73
2023-11-24T10:48:48.696Z,8.65
2023-11-24T10:51:31.224Z,9.10
2023-11-24T10:53:59.130Z,8.41
2023-11-24T10:56:26.070Z,8.82
2023-11-24T10:58:53.403Z,8.87
2023-11-24T11:01:21.502Z,8.98
2023-11-24T11:03:48.504Z,8.22
2023-11-24T11:06:39.723Z,9.24
2023-11-24T11:09:08.292Z,9.14
2023-11-24T11:11:41.254Z,9.35
2023-11-24T11:14:10.191Z,8.72
2023-11-24T11:16:37.053Z,8.06
2023-11-24T11:19:29.857Z,9.09
2023-11-24T11:21:56.843Z,8.73
2023-11-24T11:24:24.043Z,9.28
2023-11-24T11:26:50.814Z,9.65
2023-11-24T11:29:25.512Z,9.40
2023-11-24T11:31:52.499Z,9.01
2023-11-24T11:34:19.877Z,8.95
2023-11-24T11:37:13.842Z,9.14
2023-11-24T11:43:21.445Z,8.82
2023-11-24T11:45:51.640Z,8.97
2023-11-24T11:48:18.698Z,9.02
2023-11-24T11:50:58.532Z,8.52
2023-11-24T11:53:25.844Z,8.95
2023-11-24T11:56:05.325Z,9.46
2023-11-24T11:58:32.150Z,8.50
2023-11-24T12:01:13.476Z,9.68
2023-11-24T12:03:40.425Z,9.32
2023-11-24T12:06:07.503Z,9.61
2023-11-24T12:08:34.578Z,9.02
2023-11-24T12:11:01.315Z,8.71
2023-11-24T12:13:28.154Z,9.34
2023-11-24T12:15:55.154Z,9.02
2023-11-24T12:18:21.982Z,8.68
2023-11-24T12:20:49.133Z,7.80
2023-11-24T12:23:16.317Z,8.77
2023-11-24T12:25:43.464Z,9.02
2023-11-24T12:28:11.131Z,9.79
2023-11-24T12:30:56.445Z,9.67
2023-11-24T12:33:23.349Z,10.11
2023-11-24T12:35:57.771Z,9.26
2023-11-24T12:38:24.564Z,9.27
2023-11-24T12:40:51.961Z,9.32
2023-11-24T12:43:19.494Z,9.72
2023-11-24T12:45:50.103Z,9.62
2023-11-24T12:48:24.654Z,9.94
2023-11-24T12:50:54.228Z,9.23
2023-11-24T12:53:21.029Z,8.59
2023-11-24T12:55:48.366Z,8.78
2023-11-24T12:58:15.241Z,9.29
2023-11-24T13:00:42.079Z,9.34
2023-11-24T13:03:09.006Z,9.68
2023-11-24T13:05:35.868Z,9.36
2023-11-24T13:08:02.633Z,9.49
2023-11-24T13:10:29.411Z,9.12
2023-11-24T13:12:56.233Z,9.20
2023-11-24T13:15:23.052Z,9.46
2023-11-24T13:17:49.859Z,8.99
2023-11-24T13:20:16.716Z,9.43
2023-11-24T13:22:43.852Z,9.05
2023-11-24T13:25:11.230Z,8.84
2023-11-24T13:27:38.303Z,8.71
2023-11-24T13:30:06.189Z,8.09
2023-11-24T13:32:32.981Z,8.11
2023-11-24T13:34:59.788Z,7.86
2023-11-24T13:41:20.119Z,7.97
2023-11-24T13:43:46.910Z,7.80
2023-11-24T13:46:13.776Z,7.86
2023-11-24T13:48:43.240Z,7.40
2023-11-24T13:51:10.025Z,7.88
2023-11-24T13:53:36.775Z,8.30
2023-11-24T13:56:03.590Z,8.21
2023-11-24T13:58:30.412Z,7.94
2023-11-24T14:00:57.276Z,8.25
2023-11-24T14:03:24.214Z,8.17
2023-11-24T14:05:52.753Z,8.67
2023-11-24T14:08:19.625Z,9.00
2023-11-24T14:10:47.020Z,8.24
2023-11-24T14:13:13.852Z,8.35
2023-11-24T14:15:41.209Z,8.03
2023-11-24T14:18:08.803Z,8.24
2023-11-24T14:20:35.679Z,8.16
2023-11-24T14:23:02.449Z,8.04
2023-11-24T14:25:29.230Z,7.87
2023-11-24T14:27:56.068Z,7.77
2023-11-24T14:30:44.223Z,8.03
2023-11-24T14:33:11.013Z,7.73
2023-11-24T14:35:38.536Z,7.96
2023-11-24T14:38:05.393Z,8.29
2023-11-24T14:40:32.283Z,8.59
2023-11-24T14:42:59.299Z,8.31
2023-11-24T14:45:26.171Z,8.53
2023-11-24T14:47:53.057Z,8.43
2023-11-24T14:50:20.605Z,8.34
2023-11-24T14:52:47.463Z,8.53
2023-11-24T14:59:07.254Z,8.69
2023-11-24T15:01:34.278Z,7.94
2023-11-24T15:04:01.212Z,8.33
2023-11-24T15:06:28.091Z,7.60
2023-11-24T15:08:55.041Z,8.06
2023-11-24T15:11:22.820Z,8.02
2023-11-24T15:13:49.651Z,8.24
2023-11-24T15:16:20.086Z,8.45
2023-11-24T15:18:50.218Z,8.09
2023-11-24T15:21:17.295Z,8.08
2023-11-24T15:23:44.163Z,8.34
2023-11-24T15:26:14.060Z,7.82
2023-11-24T15:28:42.245Z,8.18
2023-11-24T15:31:09.175Z,8.54
2023-11-24T15:33:36.386Z,8.79
2023-11-24T15:36:03.276Z,8.34
2023-11-24T15:38:30.060Z,8.43
2023-11-24T15:41:04.408Z,8.42
2023-11-24T15:43:33.278Z,8.21
2023-11-24T15:46:01.278Z,8.59
2023-11-24T15:48:28.125Z,8.12
2023-11-24T15:50:55.017Z,7.78
2023-11-24T15:53:21.794Z,7.65
2023-11-24T15:55:49.097Z,7.14
2023-11-24T15:58:15.981Z,6.91
2023-11-24T16:00:49.328Z,6.61
2023-11-24T16:03:16.754Z,6.53
2023-11-24T16:05:45.047Z,6.53
2023-11-24T16:08:12.644Z,6.34
2023-11-24T16:10:41.791Z,6.29
2023-11-24T16:13:11.391Z,6.25
2023-11-24T16:15:40.643Z,6.47
2023-11-24T16:18:11.989Z,6.48
2023-11-24T16:20:42.749Z,6.30
2023-11-24T16:27:29.272Z,6.40
2023-11-24T16:30:01.992Z,6.37
2023-11-24T16:32:28.981Z,6.13
2023-11-24T16:34:56.978Z,6.05
2023-11-24T16:37:23.889Z,5.88
2023-11-24T16:39:53.394Z,5.66
2023-11-24T16:42:21.508Z,5.43
2023-11-24T16:44:51.305Z,5.30
2023-11-24T16:47:19.746Z,5.19
2023-11-24T16:49:47.867Z,5.01
2023-11-24T16:52:26.998Z,4.81
2023-11-24T16:54:54.140Z,4.78
2023-11-24T16:57:21.566Z,4.68
2023-11-24T17:03:41.569Z,4.53
2023-11-24T17:06:09.792Z,4.53
2023-11-24T17:08:37.630Z,4.63
2023-11-24T17:11:06.320Z,4.76
2023-11-24T17:13:36.449Z,4.76
2023-11-24T17:16:26.211Z,4.83
2023-11-24T17:18:54.259Z,5.00
2023-11-24T17:21:22.164Z,5.13
2023-11-24T17:23:50.085Z,5.20
2023-11-24T17:26:18.145Z,5.24
2023-11-24T17:28:46.868Z,5.33
2023-11-24T17:31:17.596Z,5.49
2023-11-24T17:33:45.800Z,5.38
2023-11-24T17:36:13.497Z,5.81
2023-11-24T17:38:40.349Z,5.61
2023-11-24T17:41:07.319Z,5.36
2023-11-24T17:43:34.231Z,5.80
2023-11-24T17:46:01.279Z,5.34
2023-11-24T17:48:30.266Z,5.44
2023-11-24T17:50:57.038Z,5.23
2023-11-24T17:53:23.889Z,4.96
2023-11-24T17:55:51.047Z,4.43
2023-11-24T17:58:19.305Z,3.92
2023-11-24T18:00:46.667Z,3.73
2023-11-24T18:03:13.933Z,3.34
2023-11-24T18:05:41.068Z,3.11
2023-11-24T18:08:07.888Z,3.28
2023-11-24T18:10:35.396Z,3.33
2023-11-24T18:13:02.600Z,3.40
2023-11-24T18:15:29.418Z,3.42
2023-11-24T18:17:56.356Z,3.38
2023-11-24T18:20:23.166Z,3.37
2023-11-24T18:22:51.540Z,3.32
2023-11-24T18:25:39.924Z,3.40
2023-11-24T18:28:08.500Z,3.31
2023-11-24T18:30:35.853Z,3.30
2023-11-24T18:33:03.027Z,3.31
2023-11-24T18:35:30.288Z,3.20
2023-11-24T18:37:57.562Z,3.23
2023-11-24T18:40:30.035Z,3.14
2023-11-24T18:42:56.887Z,3.04
2023-11-24T18:45:26.884Z,3.04
2023-11-24T18:51:42.472Z,2.99
2023-11-24T18:54:09.580Z,2.90
2023-11-24T18:56:37.265Z,2.87
2023-11-24T18:59:04.098Z,2.88
2023-11-24T19:01:30.994Z,2.94
2023-11-24T19:03:58.822Z,2.88
2023-11-24T19:06:25.660Z,2.86
2023-11-24T19:08:52.856Z,2.81
2023-11-24T19:11:22.628Z,2.86
2023-11-24T19:13:49.875Z,2.89
2023-11-24T19:16:17.554Z,2.78
2023-11-24T19:18:44.541Z,2.69
2023-11-24T19:21:31.703Z,2.67
2023-11-24T19:23:58.641Z,2.64
2023-11-24T19:26:28.380Z,2.50
2023-11-24T19:29:02.854Z,2.60
2023-11-24T19:31:35.711Z,2.79
2023-11-24T19:34:02.574Z,2.92
2023-11-24T19:36:29.407Z,3.17
2023-11-24T19:39:01.452Z,2.94
2023-11-24T19:41:28.575Z,2.43
2023-11-24T19:43:56.728Z,2.56
2023-11-24T19:46:35.162Z,2.58
2023-11-24T19:49:16.542Z,2.95
2023-11-24T19:51:51.579Z,3.12
2023-11-24T19:58:07.332Z,2.88
2023-11-24T20:00:35.572Z,3.04
2023-11-24T20:03:02.474Z,2.85
2023-11-24T20:05:30.069Z,2.93
2023-11-24T20:07:57.085Z,2.88
2023-11-24T20:10:23.908Z,2.96
2023-11-24T20:12:51.937Z,2.91
2023-11-24T20:15:19.798Z,2.88
2023-11-24T20:17:47.253Z,2.95
2023-11-24T20:20:14.076Z,2.95
2023-11-24T20:22:41.454Z,3.04
2023-11-24T20:25:09.245Z,2.89
2023-11-24T20:27:36.482Z,2.60
2023-11-24T20:30:31.983Z,2.40
2023-11-24T20:32:58.786Z,2.42
2023-11-24T20:35:25.618Z,2.33
2023-11-24T20:37:52.578Z,2.22
2023-11-24T20:40:20.705Z,2.34
2023-11-24T20:42:48.403Z,2.39
2023-11-24T20:45:15.437Z,2.35
2023-11-24T20:47:42.724Z,2.38
2023-11-24T20:50:13.821Z,2.55
2023-11-24T20:53:19.268Z,2.73
2023-11-24T20:55:46.709Z,2.97
2023-11-24T20:58:14.239Z,2.85
2023-11-24T21:00:41.221Z,3.31
2023-11-24T21:03:08.956Z,3.35
2023-11-24T21:05:36.272Z,2.65
2023-11-24T21:08:04.471Z,3.49
2023-11-24T21:10:31.901Z,3.75
2023-11-24T21:12:59.333Z,4.07
2023-11-24T21:15:26.585Z,4.21
2023-11-24T21:17:54.671Z,2.80
2023-11-24T21:20:21.677Z,3.09
2023-11-24T21:22:49.102Z,4.04
2023-11-24T21:25:16.296Z,3.39
2023-11-24T21:27:43.192Z,3.34
2023-11-24T21:30:12.877Z,3.92
2023-11-24T21:32:41.308Z,2.99
2023-11-24T21:35:09.320Z,3.65
2023-11-24T21:37:37.197Z,3.20
2023-11-24T21:40:08.847Z,2.47
2023-11-24T21:42:36.967Z,2.30
2023-11-24T21:45:05.316Z,2.19
2023-11-24T21:47:33.994Z,2.35
2023-11-24T21:50:07.737Z,2.25
2023-11-24T21:52:35.446Z,1.73
2023-11-24T21:55:02.569Z,1.72
2023-11-24T21:57:29.428Z,1.57
2023-11-24T21:59:56.637Z,1.53
2023-11-24T22:02:26.108Z,1.29
2023-11-24T22:04:52.996Z,1.27
2023-11-24T22:07:23.461Z,1.19
2023-11-24T22:09:50.684Z,1.05
2023-11-24T22:12:17.488Z,1.06
2023-11-24T22:14:44.515Z,1.10
2023-11-24T22:17:20.103Z,1.19
2023-11-24T22:19:49.982Z,1.37
2023-11-24T22:22:18.388Z,1.65
2023-11-24T22:24:45.314Z,1.74
2023-11-24T22:27:13.309Z,1.70
2023-11-24T22:29:51.301Z,1.74
2023-11-24T22:32:25.667Z,1.75
2023-11-24T22:34:53.439Z,1.80
2023-11-24T22:37:20.684Z,1.83
2023-11-24T22:39:47.923Z,1.98
2023-11-24T22:42:15.290Z,2.08
2023-11-24T22:44:42.809Z,2.11
2023-11-24T22:47:09.769Z,2.14
2023-11-24T22:49:38.555Z,2.16
2023-11-24T22:52:06.940Z,2.03
2023-11-24T22:54:37.952Z,1.88
2023-11-24T22:57:05.841Z,2.03
2023-11-24T22:59:33.812Z,1.68
2023-11-24T23:02:01.830Z,1.78
2023-11-24T23:04:28.780Z,1.60
2023-11-24T23:06:56.019Z,1.57
2023-11-24T23:09:26.495Z,1.53
2023-11-24T23:11:53.354Z,1.55
2023-11-24T23:14:25.436Z,1.53
2023-11-24T23:16:55.765Z,1.56
2023-11-24T23:19:23.191Z,1.55
2023-11-24T23:21:50.612Z,1.69
2023-11-24T23:24:18.769Z,1.56
2023-11-24T23:26:46.784Z,1.67
2023-11-24T23:29:15.114Z,1.68
2023-11-24T23:31:42.061Z,1.81
2023-11-24T23:34:09.665Z,2.01
2023-11-24T23:36:37.894Z,2.10
2023-11-24T23:39:05.653Z,2.10
2023-11-24T23:41:36.095Z,2.13
2023-11-24T23:44:04.057Z,2.28
2023-11-24T23:46:30.995Z,2.67
2023-11-24T23:48:58.316Z,2.85
2023-11-24T23:51:26.538Z,2.60
2023-11-24T23:53:56.388Z,3.44
2023-11-24T23:56:23.429Z,3.30
2023-11-24T23:58:50.768Z,3.18
